sensor_id;sensor_type;location;lat;lon;timestamp;P1;durP1;ratioP1;P2;durP2;ratioP2
26864;SDS011;40618;51.166;10.322;2023-02-23T00:01:40;6.38;;;4.32;;
26864;SDS011;40618;51.166;10.322;2023-02-23T00:04:06;6.45;;;3.83;;
26864;SDS011;40618;51.166;10.322;2023-02-23T00:06:33;9.15;;;5.47;;
26864;SDS011;40618;51.166;10.322;2023-02-23T00:09:01;7.90;;;5.28;;
26864;SDS011;40618;51.166;10.322;2023-02-23T00:11:36;8.30;;;5.10;;
26864;SDS011;40618;51.166;10.322;2023-02-23T00:14:02;7.28;;;5.30;;
26864;SDS011;40618;51.166;10.322;2023-02-23T00:16:27;10.32;;;6.03;;
26864;SDS011;40618;51.166;10.322;2023-02-23T00:18:54;11.43;;;6.55;;
26864;SDS011;40618;51.166;10.322;2023-02-23T00:21:25;8.32;;;5.50;;
26864;SDS011;40618;51.166;10.322;2023-02-23T00:24:00;13.13;;;6.65;;
26864;SDS011;40618;51.166;10.322;2023-02-23T00:26:31;9.18;;;6.18;;
26864;SDS011;40618;51.166;10.322;2023-02-23T00:28:59;10.15;;;6.35;;
26864;SDS011;40618;51.166;10.322;2023-02-23T00:31:28;9.90;;;6.35;;
26864;SDS011;40618;51.166;10.322;2023-02-23T00:33:55;10.50;;;6.47;;
26864;SDS011;40618;51.166;10.322;2023-02-23T00:36:27;9.35;;;6.28;;
26864;SDS011;40618;51.166;10.322;2023-02-23T00:38:58;12.05;;;7.20;;
26864;SDS011;40618;51.166;10.322;2023-02-23T00:41:30;14.40;;;8.38;;
26864;SDS011;40618;51.166;10.322;2023-02-23T00:43:57;12.63;;;7.85;;
26864;SDS011;40618;51.166;10.322;2023-02-23T00:46:25;13.80;;;7.63;;
26864;SDS011;40618;51.166;10.322;2023-02-23T00:48:55;14.90;;;7.93;;
26864;SDS011;40618;51.166;10.322;2023-02-23T00:51:24;16.02;;;8.23;;
26864;SDS011;40618;51.166;10.322;2023-02-23T00:53:54;13.57;;;8.07;;
26864;SDS011;40618;51.166;10.322;2023-02-23T00:56:21;9.40;;;6.85;;
26864;SDS011;40618;51.166;10.322;2023-02-23T00:58:48;12.02;;;7.47;;
26864;SDS011;40618;51.166;10.322;2023-02-23T01:01:14;13.75;;;8.48;;
26864;SDS011;40618;51.166;10.322;2023-02-23T01:03:41;10.88;;;7.68;;
26864;SDS011;40618;51.166;10.322;2023-02-23T01:06:09;14.25;;;8.52;;
26864;SDS011;40618;51.166;10.322;2023-02-23T01:08:40;13.77;;;7.78;;
26864;SDS011;40618;51.166;10.322;2023-02-23T01:11:10;11.60;;;5.95;;
26864;SDS011;40618;51.166;10.322;2023-02-23T01:13:40;12.52;;;8.27;;
26864;SDS011;40618;51.166;10.322;2023-02-23T01:16:09;12.77;;;8.35;;
26864;SDS011;40618;51.166;10.322;2023-02-23T01:18:39;12.90;;;8.23;;
26864;SDS011;40618;51.166;10.322;2023-02-23T01:21:13;14.40;;;8.85;;
26864;SDS011;40618;51.166;10.322;2023-02-23T01:23:41;13.45;;;8.95;;
26864;SDS011;40618;51.166;10.322;2023-02-23T01:26:13;15.90;;;9.50;;
26864;SDS011;40618;51.166;10.322;2023-02-23T01:28:47;14.48;;;8.93;;
26864;SDS011;40618;51.166;10.322;2023-02-23T01:31:15;13.88;;;8.82;;
26864;SDS011;40618;51.166;10.322;2023-02-23T01:33:41;16.35;;;9.98;;
26864;SDS011;40618;51.166;10.322;2023-02-23T01:36:07;16.02;;;9.65;;
26864;SDS011;40618;51.166;10.322;2023-02-23T01:38:32;16.55;;;8.52;;
26864;SDS011;40618;51.166;10.322;2023-02-23T01:40:58;14.93;;;9.35;;
26864;SDS011;40618;51.166;10.322;2023-02-23T01:43:24;17.45;;;9.95;;
26864;SDS011;40618;51.166;10.322;2023-02-23T01:45:51;15.05;;;9.48;;
26864;SDS011;40618;51.166;10.322;2023-02-23T01:48:35;15.48;;;9.63;;
26864;SDS011;40618;51.166;10.322;2023-02-23T01:51:09;17.88;;;8.60;;
26864;SDS011;40618;51.166;10.322;2023-02-23T01:53:43;13.80;;;8.98;;
26864;SDS011;40618;51.166;10.322;2023-02-23T01:56:20;12.75;;;8.50;;
26864;SDS011;40618;51.166;10.322;2023-02-23T01:58:52;13.02;;;9.07;;
26864;SDS011;40618;51.166;10.322;2023-02-23T02:01:22;15.02;;;9.18;;
26864;SDS011;40618;51.166;10.322;2023-02-23T02:03:53;16.75;;;9.95;;
26864;SDS011;40618;51.166;10.322;2023-02-23T02:06:26;15.35;;;9.70;;
26864;SDS011;40618;51.166;10.322;2023-02-23T02:08:55;15.18;;;9.65;;
26864;SDS011;40618;51.166;10.322;2023-02-23T02:11:30;13.55;;;8.88;;
26864;SDS011;40618;51.166;10.322;2023-02-23T02:14:13;14.20;;;9.05;;
26864;SDS011;40618;51.166;10.322;2023-02-23T02:25:45;15.32;;;9.98;;
26864;SDS011;40618;51.166;10.322;2023-02-23T02:37:42;15.77;;;9.60;;
26864;SDS011;40618;51.166;10.322;2023-02-23T02:40:40;16.25;;;9.63;;
26864;SDS011;40618;51.166;10.322;2023-02-23T02:46:22;13.82;;;9.52;;
26864;SDS011;40618;51.166;10.322;2023-02-23T02:51:27;19.40;;;9.80;;
26864;SDS011;40618;51.166;10.322;2023-02-23T02:54:05;16.40;;;9.90;;
26864;SDS011;40618;51.166;10.322;2023-02-23T02:56:47;16.42;;;9.80;;
26864;SDS011;40618;51.166;10.322;2023-02-23T02:59:17;13.85;;;9.25;;
26864;SDS011;40618;51.166;10.322;2023-02-23T03:02:05;14.20;;;8.88;;
26864;SDS011;40618;51.166;10.322;2023-02-23T03:04:54;15.60;;;9.52;;
26864;SDS011;40618;51.166;10.322;2023-02-23T03:07:44;16.92;;;9.77;;
26864;SDS011;40618;51.166;10.322;2023-02-23T03:20:29;15.45;;;9.90;;
26864;SDS011;40618;51.166;10.322;2023-02-23T03:26:40;16.05;;;9.75;;
26864;SDS011;40618;51.166;10.322;2023-02-23T03:32:58;13.77;;;9.30;;
26864;SDS011;40618;51.166;10.322;2023-02-23T03:35:56;18.20;;;10.27;;
26864;SDS011;40618;51.166;10.322;2023-02-23T03:38:59;17.52;;;10.57;;
26864;SDS011;40618;51.166;10.322;2023-02-23T03:41:53;19.85;;;10.82;;
26864;SDS011;40618;51.166;10.322;2023-02-23T03:44:42;15.73;;;9.80;;
26864;SDS011;40618;51.166;10.322;2023-02-23T03:47:32;19.85;;;10.27;;
26864;SDS011;40618;51.166;10.322;2023-02-23T03:50:30;16.17;;;9.90;;
26864;SDS011;40618;51.166;10.322;2023-02-23T03:53:31;17.23;;;10.27;;
26864;SDS011;40618;51.166;10.322;2023-02-23T03:56:46;13.85;;;8.52;;
26864;SDS011;40618;51.166;10.322;2023-02-23T03:59:36;14.52;;;8.48;;
26864;SDS011;40618;51.166;10.322;2023-02-23T04:02:37;17.92;;;9.95;;
26864;SDS011;40618;51.166;10.322;2023-02-23T04:05:26;19.35;;;10.90;;
26864;SDS011;40618;51.166;10.322;2023-02-23T04:08:14;16.15;;;9.45;;
26864;SDS011;40618;51.166;10.322;2023-02-23T04:11:14;16.20;;;10.32;;
26864;SDS011;40618;51.166;10.322;2023-02-23T04:14:16;15.10;;;9.90;;
26864;SDS011;40618;51.166;10.322;2023-02-23T04:17:00;16.02;;;10.02;;
26864;SDS011;40618;51.166;10.322;2023-02-23T04:19:29;19.40;;;10.43;;
26864;SDS011;40618;51.166;10.322;2023-02-23T04:21:55;17.83;;;10.70;;
26864;SDS011;40618;51.166;10.322;2023-02-23T04:24:20;16.95;;;10.38;;
26864;SDS011;40618;51.166;10.322;2023-02-23T04:26:46;19.90;;;11.75;;
26864;SDS011;40618;51.166;10.322;2023-02-23T04:29:11;17.73;;;10.88;;
26864;SDS011;40618;51.166;10.322;2023-02-23T04:31:37;16.55;;;10.32;;
26864;SDS011;40618;51.166;10.322;2023-02-23T04:34:03;22.13;;;13.82;;
26864;SDS011;40618;51.166;10.322;2023-02-23T04:36:29;25.98;;;17.00;;
26864;SDS011;40618;51.166;10.322;2023-02-23T04:38:55;24.63;;;16.48;;
26864;SDS011;40618;51.166;10.322;2023-02-23T04:41:21;23.85;;;15.68;;
26864;SDS011;40618;51.166;10.322;2023-02-23T04:43:47;21.40;;;13.93;;
26864;SDS011;40618;51.166;10.322;2023-02-23T04:46:13;22.85;;;14.80;;
26864;SDS011;40618;51.166;10.322;2023-02-23T04:48:39;19.27;;;12.77;;
26864;SDS011;40618;51.166;10.322;2023-02-23T04:51:04;20.05;;;12.43;;
26864;SDS011;40618;51.166;10.322;2023-02-23T04:53:30;21.70;;;12.90;;
26864;SDS011;40618;51.166;10.322;2023-02-23T04:55:56;21.85;;;13.90;;
26864;SDS011;40618;51.166;10.322;2023-02-23T04:58:21;22.85;;;12.27;;
26864;SDS011;40618;51.166;10.322;2023-02-23T05:00:47;17.77;;;10.82;;
26864;SDS011;40618;51.166;10.322;2023-02-23T05:03:13;17.80;;;12.13;;
26864;SDS011;40618;51.166;10.322;2023-02-23T05:05:41;19.90;;;12.25;;
26864;SDS011;40618;51.166;10.322;2023-02-23T05:08:07;18.30;;;10.90;;
26864;SDS011;40618;51.166;10.322;2023-02-23T05:10:34;17.95;;;11.13;;
26864;SDS011;40618;51.166;10.322;2023-02-23T05:13:00;19.42;;;11.70;;
26864;SDS011;40618;51.166;10.322;2023-02-23T05:15:26;20.23;;;11.23;;
26864;SDS011;40618;51.166;10.322;2023-02-23T05:17:53;19.92;;;11.02;;
26864;SDS011;40618;51.166;10.322;2023-02-23T05:20:20;20.20;;;11.43;;
26864;SDS011;40618;51.166;10.322;2023-02-23T05:22:46;16.63;;;10.75;;
26864;SDS011;40618;51.166;10.322;2023-02-23T05:25:12;16.05;;;10.50;;
26864;SDS011;40618;51.166;10.322;2023-02-23T05:27:38;23.52;;;11.45;;
26864;SDS011;40618;51.166;10.322;2023-02-23T05:30:04;14.82;;;11.00;;
26864;SDS011;40618;51.166;10.322;2023-02-23T05:32:32;16.73;;;11.25;;
26864;SDS011;40618;51.166;10.322;2023-02-23T05:34:58;18.98;;;11.35;;
26864;SDS011;40618;51.166;10.322;2023-02-23T05:37:24;16.40;;;10.82;;
26864;SDS011;40618;51.166;10.322;2023-02-23T05:39:50;21.65;;;11.95;;
26864;SDS011;40618;51.166;10.322;2023-02-23T05:42:16;18.55;;;11.05;;
26864;SDS011;40618;51.166;10.322;2023-02-23T05:44:42;16.42;;;10.68;;
26864;SDS011;40618;51.166;10.322;2023-02-23T05:47:07;17.02;;;10.05;;
26864;SDS011;40618;51.166;10.322;2023-02-23T05:49:34;17.92;;;10.38;;
26864;SDS011;40618;51.166;10.322;2023-02-23T05:52:00;14.93;;;10.15;;
26864;SDS011;40618;51.166;10.322;2023-02-23T05:54:26;17.17;;;10.80;;
26864;SDS011;40618;51.166;10.322;2023-02-23T05:56:51;16.92;;;10.02;;
26864;SDS011;40618;51.166;10.322;2023-02-23T05:59:17;19.67;;;11.35;;
26864;SDS011;40618;51.166;10.322;2023-02-23T06:01:42;18.48;;;10.35;;
26864;SDS011;40618;51.166;10.322;2023-02-23T06:04:08;14.93;;;9.50;;
26864;SDS011;40618;51.166;10.322;2023-02-23T06:06:34;15.07;;;10.25;;
26864;SDS011;40618;51.166;10.322;2023-02-23T06:09:00;18.50;;;11.35;;
26864;SDS011;40618;51.166;10.322;2023-02-23T06:11:28;21.27;;;12.05;;
26864;SDS011;40618;51.166;10.322;2023-02-23T06:13:56;22.20;;;11.52;;
26864;SDS011;40618;51.166;10.322;2023-02-23T06:16:23;20.77;;;12.60;;
26864;SDS011;40618;51.166;10.322;2023-02-23T06:18:50;20.95;;;12.05;;
26864;SDS011;40618;51.166;10.322;2023-02-23T06:21:15;19.80;;;12.25;;
26864;SDS011;40618;51.166;10.322;2023-02-23T06:23:41;19.27;;;11.48;;
26864;SDS011;40618;51.166;10.322;2023-02-23T06:26:06;15.65;;;10.60;;
26864;SDS011;40618;51.166;10.322;2023-02-23T06:28:32;21.08;;;11.15;;
26864;SDS011;40618;51.166;10.322;2023-02-23T06:30:58;17.35;;;10.57;;
26864;SDS011;40618;51.166;10.322;2023-02-23T06:33:24;16.83;;;10.57;;
26864;SDS011;40618;51.166;10.322;2023-02-23T06:35:50;17.13;;;11.00;;
26864;SDS011;40618;51.166;10.322;2023-02-23T06:38:16;22.08;;;11.55;;
26864;SDS011;40618;51.166;10.322;2023-02-23T06:40:43;19.75;;;11.80;;
26864;SDS011;40618;51.166;10.322;2023-02-23T06:43:08;20.08;;;11.50;;
26864;SDS011;40618;51.166;10.322;2023-02-23T06:45:34;18.58;;;10.48;;
26864;SDS011;40618;51.166;10.322;2023-02-23T06:48:00;16.40;;;10.50;;
26864;SDS011;40618;51.166;10.322;2023-02-23T06:50:26;17.48;;;10.85;;
26864;SDS011;40618;51.166;10.322;2023-02-23T06:52:51;18.65;;;12.00;;
26864;SDS011;40618;51.166;10.322;2023-02-23T06:55:17;18.25;;;12.25;;
26864;SDS011;40618;51.166;10.322;2023-02-23T06:57:43;19.30;;;11.93;;
26864;SDS011;40618;51.166;10.322;2023-02-23T07:00:09;19.98;;;12.25;;
26864;SDS011;40618;51.166;10.322;2023-02-23T07:02:39;20.73;;;11.70;;
26864;SDS011;40618;51.166;10.322;2023-02-23T07:05:06;22.90;;;13.05;;
26864;SDS011;40618;51.166;10.322;2023-02-23T07:07:32;25.63;;;15.02;;
26864;SDS011;40618;51.166;10.322;2023-02-23T07:09:58;30.77;;;19.25;;
26864;SDS011;40618;51.166;10.322;2023-02-23T07:12:24;22.38;;;15.88;;
26864;SDS011;40618;51.166;10.322;2023-02-23T07:14:49;24.35;;;16.27;;
26864;SDS011;40618;51.166;10.322;2023-02-23T07:17:15;25.50;;;16.05;;
26864;SDS011;40618;51.166;10.322;2023-02-23T07:19:41;23.42;;;15.02;;
26864;SDS011;40618;51.166;10.322;2023-02-23T07:22:07;24.77;;;15.40;;
26864;SDS011;40618;51.166;10.322;2023-02-23T07:24:33;26.02;;;15.05;;
26864;SDS011;40618;51.166;10.322;2023-02-23T07:26:59;26.48;;;15.80;;
26864;SDS011;40618;51.166;10.322;2023-02-23T07:29:24;24.38;;;16.33;;
26864;SDS011;40618;51.166;10.322;2023-02-23T07:31:52;32.58;;;20.65;;
26864;SDS011;40618;51.166;10.322;2023-02-23T07:34:18;29.85;;;19.85;;
26864;SDS011;40618;51.166;10.322;2023-02-23T07:36:43;99.75;;;41.80;;
26864;SDS011;40618;51.166;10.322;2023-02-23T07:39:09;141.75;;;55.85;;
26864;SDS011;40618;51.166;10.322;2023-02-23T07:41:35;81.90;;;35.00;;
26864;SDS011;40618;51.166;10.322;2023-02-23T07:44:00;57.00;;;26.73;;
26864;SDS011;40618;51.166;10.322;2023-02-23T07:46:26;52.03;;;27.58;;
26864;SDS011;40618;51.166;10.322;2023-02-23T07:48:51;44.03;;;24.67;;
26864;SDS011;40618;51.166;10.322;2023-02-23T07:51:18;46.45;;;25.83;;
26864;SDS011;40618;51.166;10.322;2023-02-23T07:53:44;47.70;;;26.45;;
26864;SDS011;40618;51.166;10.322;2023-02-23T07:56:10;42.63;;;23.92;;
26864;SDS011;40618;51.166;10.322;2023-02-23T07:58:40;44.03;;;23.55;;
26864;SDS011;40618;51.166;10.322;2023-02-23T08:01:08;36.83;;;19.85;;
26864;SDS011;40618;51.166;10.322;2023-02-23T08:03:35;29.17;;;17.95;;
26864;SDS011;40618;51.166;10.322;2023-02-23T08:06:01;29.65;;;17.85;;
26864;SDS011;40618;51.166;10.322;2023-02-23T08:08:27;41.88;;;20.23;;
26864;SDS011;40618;51.166;10.322;2023-02-23T08:10:59;39.50;;;21.15;;
26864;SDS011;40618;51.166;10.322;2023-02-23T08:13:28;36.03;;;20.80;;
26864;SDS011;40618;51.166;10.322;2023-02-23T08:15:55;39.75;;;21.13;;
26864;SDS011;40618;51.166;10.322;2023-02-23T08:18:21;32.10;;;18.38;;
26864;SDS011;40618;51.166;10.322;2023-02-23T08:20:47;32.28;;;19.00;;
26864;SDS011;40618;51.166;10.322;2023-02-23T08:23:12;35.20;;;18.63;;
26864;SDS011;40618;51.166;10.322;2023-02-23T08:25:38;35.97;;;19.17;;
26864;SDS011;40618;51.166;10.322;2023-02-23T08:28:04;39.67;;;20.92;;
26864;SDS011;40618;51.166;10.322;2023-02-23T08:30:31;34.85;;;19.80;;
26864;SDS011;40618;51.166;10.322;2023-02-23T08:32:57;42.90;;;20.15;;
26864;SDS011;40618;51.166;10.322;2023-02-23T08:35:25;30.23;;;18.02;;
26864;SDS011;40618;51.166;10.322;2023-02-23T08:37:51;32.10;;;18.10;;
26864;SDS011;40618;51.166;10.322;2023-02-23T08:40:18;36.60;;;20.88;;
26864;SDS011;40618;51.166;10.322;2023-02-23T08:42:44;36.30;;;19.85;;
26864;SDS011;40618;51.166;10.322;2023-02-23T08:45:13;33.08;;;19.77;;
26864;SDS011;40618;51.166;10.322;2023-02-23T08:47:39;32.83;;;18.45;;
26864;SDS011;40618;51.166;10.322;2023-02-23T08:50:05;34.95;;;19.27;;
26864;SDS011;40618;51.166;10.322;2023-02-23T08:52:31;33.45;;;19.83;;
26864;SDS011;40618;51.166;10.322;2023-02-23T08:54:57;30.38;;;17.42;;
26864;SDS011;40618;51.166;10.322;2023-02-23T08:57:22;33.05;;;19.02;;
26864;SDS011;40618;51.166;10.322;2023-02-23T08:59:48;35.10;;;17.30;;
26864;SDS011;40618;51.166;10.322;2023-02-23T09:02:14;33.65;;;19.70;;
26864;SDS011;40618;51.166;10.322;2023-02-23T09:04:39;30.80;;;19.02;;
26864;SDS011;40618;51.166;10.322;2023-02-23T09:07:06;33.70;;;18.92;;
26864;SDS011;40618;51.166;10.322;2023-02-23T09:09:33;29.83;;;18.45;;
26864;SDS011;40618;51.166;10.322;2023-02-23T09:11:59;31.63;;;18.25;;
26864;SDS011;40618;51.166;10.322;2023-02-23T09:14:25;31.98;;;18.08;;
26864;SDS011;40618;51.166;10.322;2023-02-23T09:16:52;29.55;;;17.52;;
26864;SDS011;40618;51.166;10.322;2023-02-23T09:19:17;31.58;;;18.85;;
26864;SDS011;40618;51.166;10.322;2023-02-23T09:21:44;32.85;;;19.13;;
26864;SDS011;40618;51.166;10.322;2023-02-23T09:24:09;36.85;;;20.63;;
26864;SDS011;40618;51.166;10.322;2023-02-23T09:26:35;32.00;;;18.30;;
26864;SDS011;40618;51.166;10.322;2023-02-23T09:29:04;29.92;;;19.30;;
26864;SDS011;40618;51.166;10.322;2023-02-23T09:31:31;32.67;;;19.58;;
26864;SDS011;40618;51.166;10.322;2023-02-23T09:33:57;39.17;;;21.30;;
26864;SDS011;40618;51.166;10.322;2023-02-23T09:36:24;36.95;;;21.67;;
26864;SDS011;40618;51.166;10.322;2023-02-23T09:38:54;33.85;;;20.33;;
26864;SDS011;40618;51.166;10.322;2023-02-23T09:43:53;42.13;;;22.58;;
26864;SDS011;40618;51.166;10.322;2023-02-23T09:49:12;39.15;;;22.35;;
26864;SDS011;40618;51.166;10.322;2023-02-23T09:51:48;36.90;;;22.67;;
26864;SDS011;40618;51.166;10.322;2023-02-23T09:54:21;40.42;;;23.35;;
26864;SDS011;40618;51.166;10.322;2023-02-23T09:59:20;39.85;;;23.00;;
26864;SDS011;40618;51.166;10.322;2023-02-23T10:09:53;39.03;;;23.58;;
26864;SDS011;40618;51.166;10.322;2023-02-23T10:18:06;42.45;;;22.83;;
26864;SDS011;40618;51.166;10.322;2023-02-23T10:20:49;38.28;;;22.00;;
26864;SDS011;40618;51.166;10.322;2023-02-23T10:23:30;38.00;;;22.65;;
26864;SDS011;40618;51.166;10.322;2023-02-23T10:26:24;40.40;;;22.63;;
26864;SDS011;40618;51.166;10.322;2023-02-23T10:29:21;40.72;;;22.52;;
26864;SDS011;40618;51.166;10.322;2023-02-23T10:31:48;41.90;;;23.08;;
26864;SDS011;40618;51.166;10.322;2023-02-23T10:34:21;46.90;;;23.67;;
26864;SDS011;40618;51.166;10.322;2023-02-23T10:36:51;42.50;;;23.85;;
26864;SDS011;40618;51.166;10.322;2023-02-23T10:39:25;42.33;;;24.38;;
26864;SDS011;40618;51.166;10.322;2023-02-23T10:41:55;49.65;;;24.88;;
26864;SDS011;40618;51.166;10.322;2023-02-23T10:44:28;41.63;;;24.02;;
26864;SDS011;40618;51.166;10.322;2023-02-23T10:49:37;45.45;;;25.52;;
26864;SDS011;40618;51.166;10.322;2023-02-23T10:52:13;43.70;;;26.33;;
26864;SDS011;40618;51.166;10.322;2023-02-23T10:54:48;50.78;;;26.17;;
26864;SDS011;40618;51.166;10.322;2023-02-23T10:59:57;53.83;;;30.55;;
26864;SDS011;40618;51.166;10.322;2023-02-23T11:02:42;46.85;;;24.30;;
26864;SDS011;40618;51.166;10.322;2023-02-23T11:10:56;48.60;;;25.27;;
26864;SDS011;40618;51.166;10.322;2023-02-23T11:13:47;45.03;;;25.45;;
26864;SDS011;40618;51.166;10.322;2023-02-23T11:19:03;56.28;;;29.50;;
26864;SDS011;40618;51.166;10.322;2023-02-23T11:21:36;48.97;;;28.50;;
26864;SDS011;40618;51.166;10.322;2023-02-23T11:26:56;43.60;;;25.95;;
26864;SDS011;40618;51.166;10.322;2023-02-23T11:32:06;42.00;;;25.58;;
26864;SDS011;40618;51.166;10.322;2023-02-23T11:34:40;44.03;;;24.75;;
26864;SDS011;40618;51.166;10.322;2023-02-23T11:39:53;40.45;;;25.38;;
26864;SDS011;40618;51.166;10.322;2023-02-23T11:42:28;40.70;;;25.30;;
26864;SDS011;40618;51.166;10.322;2023-02-23T11:45:01;43.42;;;23.98;;
26864;SDS011;40618;51.166;10.322;2023-02-23T11:47:51;40.33;;;24.13;;
26864;SDS011;40618;51.166;10.322;2023-02-23T11:50:22;40.10;;;23.85;;
26864;SDS011;40618;51.166;10.322;2023-02-23T11:55:59;38.25;;;23.17;;
26864;SDS011;40618;51.166;10.322;2023-02-23T11:58:38;42.35;;;25.13;;
26864;SDS011;40618;51.166;10.322;2023-02-23T12:01:10;39.97;;;24.48;;
26864;SDS011;40618;51.166;10.322;2023-02-23T12:03:44;43.00;;;24.38;;
26864;SDS011;40618;51.166;10.322;2023-02-23T12:06:25;37.45;;;22.55;;
26864;SDS011;40618;51.166;10.322;2023-02-23T12:11:52;38.08;;;22.67;;
26864;SDS011;40618;51.166;10.322;2023-02-23T12:14:32;35.42;;;20.73;;
26864;SDS011;40618;51.166;10.322;2023-02-23T12:17:17;36.63;;;20.58;;
26864;SDS011;40618;51.166;10.322;2023-02-23T12:19:54;32.78;;;18.88;;
26864;SDS011;40618;51.166;10.322;2023-02-23T12:22:29;31.55;;;18.83;;
26864;SDS011;40618;51.166;10.322;2023-02-23T12:25:44;33.05;;;19.02;;
26864;SDS011;40618;51.166;10.322;2023-02-23T12:40:13;30.80;;;17.42;;
26864;SDS011;40618;51.166;10.322;2023-02-23T12:45:34;28.63;;;16.10;;
26864;SDS011;40618;51.166;10.322;2023-02-23T12:51:00;29.63;;;16.13;;
26864;SDS011;40618;51.166;10.322;2023-02-23T12:53:43;25.05;;;15.50;;
26864;SDS011;40618;51.166;10.322;2023-02-23T13:11:01;21.15;;;14.07;;
26864;SDS011;40618;51.166;10.322;2023-02-23T13:13:40;25.48;;;13.75;;
26864;SDS011;40618;51.166;10.322;2023-02-23T13:16:34;23.27;;;14.55;;
26864;SDS011;40618;51.166;10.322;2023-02-23T13:22:21;23.80;;;14.77;;
26864;SDS011;40618;51.166;10.322;2023-02-23T13:24:59;26.60;;;15.07;;
26864;SDS011;40618;51.166;10.322;2023-02-23T13:27:33;25.60;;;15.48;;
26864;SDS011;40618;51.166;10.322;2023-02-23T13:30:09;26.40;;;15.55;;
26864;SDS011;40618;51.166;10.322;2023-02-23T13:32:36;28.05;;;15.38;;
26864;SDS011;40618;51.166;10.322;2023-02-23T13:35:09;28.45;;;16.60;;
26864;SDS011;40618;51.166;10.322;2023-02-23T13:37:50;28.55;;;15.88;;
26864;SDS011;40618;51.166;10.322;2023-02-23T13:42:58;29.60;;;17.08;;
26864;SDS011;40618;51.166;10.322;2023-02-23T13:57:02;25.35;;;15.15;;
26864;SDS011;40618;51.166;10.322;2023-02-23T14:02:43;22.60;;;13.40;;
26864;SDS011;40618;51.166;10.322;2023-02-23T14:05:06;25.45;;;14.70;;
26864;SDS011;40618;51.166;10.322;2023-02-23T14:07:44;26.55;;;14.32;;
26864;SDS011;40618;51.166;10.322;2023-02-23T14:10:18;22.67;;;13.63;;
26864;SDS011;40618;51.166;10.322;2023-02-23T14:13:22;22.70;;;13.73;;
26864;SDS011;40618;51.166;10.322;2023-02-23T14:26:17;19.33;;;11.93;;
26864;SDS011;40618;51.166;10.322;2023-02-23T14:40:20;23.52;;;12.95;;
26864;SDS011;40618;51.166;10.322;2023-02-23T14:42:56;23.40;;;13.80;;
26864;SDS011;40618;51.166;10.322;2023-02-23T14:45:36;19.40;;;10.90;;
26864;SDS011;40618;51.166;10.322;2023-02-23T14:48:10;19.05;;;10.40;;
26864;SDS011;40618;51.166;10.322;2023-02-23T14:50:37;14.13;;;9.13;;
26864;SDS011;40618;51.166;10.322;2023-02-23T14:53:05;16.20;;;10.13;;
26864;SDS011;40618;51.166;10.322;2023-02-23T14:55:42;14.55;;;9.00;;
26864;SDS011;40618;51.166;10.322;2023-02-23T15:01:04;8.35;;;6.10;;
26864;SDS011;40618;51.166;10.322;2023-02-23T15:03:30;9.00;;;5.80;;
26864;SDS011;40618;51.166;10.322;2023-02-23T15:05:56;7.13;;;5.25;;
26864;SDS011;40618;51.166;10.322;2023-02-23T15:08:25;7.72;;;5.40;;
26864;SDS011;40618;51.166;10.322;2023-02-23T15:11:02;6.47;;;4.30;;
26864;SDS011;40618;51.166;10.322;2023-02-23T15:13:37;6.57;;;4.18;;
26864;SDS011;40618;51.166;10.322;2023-02-23T15:16:13;11.90;;;6.07;;
26864;SDS011;40618;51.166;10.322;2023-02-23T15:18:50;7.75;;;4.88;;
26864;SDS011;40618;51.166;10.322;2023-02-23T15:21:18;6.65;;;4.25;;
26864;SDS011;40618;51.166;10.322;2023-02-23T15:23:47;6.85;;;2.97;;
26864;SDS011;40618;51.166;10.322;2023-02-23T15:29:01;5.60;;;3.67;;
26864;SDS011;40618;51.166;10.322;2023-02-23T15:31:29;4.93;;;3.83;;
26864;SDS011;40618;51.166;10.322;2023-02-23T15:33:55;8.65;;;4.30;;
26864;SDS011;40618;51.166;10.322;2023-02-23T15:36:26;22.15;;;17.83;;
26864;SDS011;40618;51.166;10.322;2023-02-23T15:38:58;6.13;;;5.10;;
26864;SDS011;40618;51.166;10.322;2023-02-23T15:41:30;6.30;;;3.45;;
26864;SDS011;40618;51.166;10.322;2023-02-23T15:44:05;7.13;;;3.50;;
26864;SDS011;40618;51.166;10.322;2023-02-23T15:46:38;4.63;;;2.97;;
26864;SDS011;40618;51.166;10.322;2023-02-23T15:49:10;4.57;;;2.78;;
26864;SDS011;40618;51.166;10.322;2023-02-23T15:51:45;7.38;;;3.78;;
26864;SDS011;40618;51.166;10.322;2023-02-23T15:54:18;4.35;;;3.28;;
26864;SDS011;40618;51.166;10.322;2023-02-23T15:56:55;8.63;;;4.80;;
26864;SDS011;40618;51.166;10.322;2023-02-23T15:59:28;5.50;;;4.18;;
26864;SDS011;40618;51.166;10.322;2023-02-23T16:01:59;8.80;;;5.45;;
26864;SDS011;40618;51.166;10.322;2023-02-23T16:04:29;11.45;;;6.13;;
26864;SDS011;40618;51.166;10.322;2023-02-23T16:07:16;8.68;;;5.75;;
26864;SDS011;40618;51.166;10.322;2023-02-23T16:09:52;8.57;;;6.00;;
26864;SDS011;40618;51.166;10.322;2023-02-23T16:12:35;9.52;;;6.45;;
26864;SDS011;40618;51.166;10.322;2023-02-23T16:15:04;8.15;;;5.88;;
26864;SDS011;40618;51.166;10.322;2023-02-23T16:17:54;7.38;;;5.57;;
26864;SDS011;40618;51.166;10.322;2023-02-23T16:20:36;10.13;;;6.68;;
26864;SDS011;40618;51.166;10.322;2023-02-23T16:23:11;7.35;;;5.90;;
26864;SDS011;40618;51.166;10.322;2023-02-23T16:26:09;8.80;;;6.00;;
26864;SDS011;40618;51.166;10.322;2023-02-23T16:28:40;8.63;;;5.80;;
26864;SDS011;40618;51.166;10.322;2023-02-23T16:31:09;8.43;;;6.38;;
26864;SDS011;40618;51.166;10.322;2023-02-23T16:33:51;7.70;;;5.57;;
26864;SDS011;40618;51.166;10.322;2023-02-23T16:36:24;7.32;;;5.32;;
26864;SDS011;40618;51.166;10.322;2023-02-23T16:39:05;9.15;;;6.40;;
26864;SDS011;40618;51.166;10.322;2023-02-23T16:41:36;10.65;;;7.63;;
26864;SDS011;40618;51.166;10.322;2023-02-23T16:44:03;9.85;;;6.93;;
26864;SDS011;40618;51.166;10.322;2023-02-23T16:46:31;9.73;;;7.63;;
26864;SDS011;40618;51.166;10.322;2023-02-23T16:49:18;8.80;;;6.97;;
26864;SDS011;40618;51.166;10.322;2023-02-23T16:51:44;10.00;;;6.90;;
26864;SDS011;40618;51.166;10.322;2023-02-23T16:54:10;10.93;;;6.45;;
26864;SDS011;40618;51.166;10.322;2023-02-23T16:56:37;10.32;;;6.97;;
26864;SDS011;40618;51.166;10.322;2023-02-23T16:59:04;11.32;;;7.72;;
26864;SDS011;40618;51.166;10.322;2023-02-23T17:01:33;25.98;;;13.30;;
26864;SDS011;40618;51.166;10.322;2023-02-23T17:04:00;32.53;;;16.00;;
26864;SDS011;40618;51.166;10.322;2023-02-23T17:06:26;16.73;;;10.20;;
26864;SDS011;40618;51.166;10.322;2023-02-23T17:08:52;14.18;;;9.00;;
26864;SDS011;40618;51.166;10.322;2023-02-23T17:11:18;11.23;;;7.60;;
26864;SDS011;40618;51.166;10.322;2023-02-23T17:13:44;10.55;;;7.97;;
26864;SDS011;40618;51.166;10.322;2023-02-23T17:16:10;11.00;;;8.20;;
26864;SDS011;40618;51.166;10.322;2023-02-23T17:18:38;11.10;;;8.32;;
26864;SDS011;40618;51.166;10.322;2023-02-23T17:21:05;13.15;;;8.80;;
26864;SDS011;40618;51.166;10.322;2023-02-23T17:23:35;11.93;;;8.50;;
26864;SDS011;40618;51.166;10.322;2023-02-23T17:26:07;13.60;;;8.30;;
26864;SDS011;40618;51.166;10.322;2023-02-23T17:28:35;11.85;;;8.25;;
26864;SDS011;40618;51.166;10.322;2023-02-23T17:31:03;10.00;;;7.72;;
26864;SDS011;40618;51.166;10.322;2023-02-23T17:33:29;12.43;;;8.85;;